Lancaster, PA

2:01 AM EDT on June 02, 2015 (GMT -0400)
Paradise | | Change Station
CLOSE
Current Station
Personal Weather Station
Location: Paradise, PA
Elevation: 365 ft
Nearby Weather Stations

Elev 365 ft 40.01 °N, 76.14 °W | Updated 5 minutes ago

Overcast
Overcast
55.9 °F
Feels Like 55.9 °F
N
3.0
Wind Variable Wind from NE
Gusts 7.0 mph

Today
High -- | Low -- °F
--% Chance of Precip.
Yesterday
High -- | Low -- °F
Precip. -- in
5:37 AM 8:28 PM
Full, 100% visible
Pressure 30.08 in
Visibility 5.0 miles
Clouds Overcast 800 ft
Dew Point 55 °F
Humidity 95%
Rainfall 0.00 in
Snow Depth Not available.
UV 0 out of 12
Pollen .90 out of 12
Air Quality Not available.
Flu Activity Sporadic
METAR KLNS 020553Z AUTO 06007KT 5SM BR OVC008 13/13 A3008 RMK AO2 SLP185 60035 T01330128 10172 20133 53007

More Conditions Fewer Conditions

Pressure 30.08 in
Visibility 5.0 miles
Clouds Overcast 800 ft
Dew Point 55 °F
Humidity 95%
Rainfall 0.00 in
Snow Depth Not available.
UV 0 out of 12
Pollen .90 out of 12
Air Quality Not available.
Flu Activity Sporadic
METAR KLNS 020553Z AUTO 06007KT 5SM BR OVC008 13/13 A3008 RMK AO2 SLP185 60035 T01330128 10172 20133 53007

More Conditions Fewer Conditions

Nowcast | as of 11:29 PM EDT on June 1, 2015

Widespread showers will move out of the middle and lower Susquehanna valley by 2 am. A brief heavy downpour will be possible. The showers are moving northeast at 30 mph.

×

10-Day Weather Forecast

Almanac

Astronomy

Jun. 02, 2015 Rise Set
Actual Time
Civil Twilight
Nautical Twilight
Astronomical Twilight
Moon
Length of Visible Light
Length of Day
Tomorrow will be .
, % of the Moon is Illuminated

Today's Extremes

State Highs State Lows

Community

WunderPhotos

Upload Photos

1,825,922 photos uploaded!

WunderBlogs® & News

Nearby

Air Quality

  Air Quality AQ Index Pollutant
Not available.

Snow Depth

Station Depth Elevation

Earthquake Activity

City Distance Mag. Time & Date
Minimum magnitude displayed is 2.5.

Coastal Water Temperatures

Place Temperature

Stations

Nearby Weather Stations

Station Location Temp. Windchill Dew Point Humidity Wind Precip. Elev Updated Type